Terminal Aerodrome Forecast
Issued by NWS

Home | Current Version | Previous Version | Text Only | Print | Product List | Glossary On
Versions: 1 2 3 4 5 6 7 8 9 10 11 12 13 14 15
000
FTUS41 KRNK 261123
TAFBCB
TAF
KBCB 261123Z 2612/2712 00000KT 5SM BR SCT001 SCT080
     FM261300 25007KT P6SM SCT035 SCT100
     FM261800 27005KT P6SM VCTS BKN050CB
     FM270000 VRB03KT P6SM SCT045 BKN100
     FM270900 00000KT 2SM BR SCT001 BKN050=

USA.gov is the U.S. government's official web portal to all federal, state and local government web resources and services.